createdAt,value
2018-01-07T00:00:25.029Z,93.32
2018-01-07T00:01:25.020Z,94.18
2018-01-07T00:02:25.013Z,93.41
2018-01-07T00:03:25.053Z,93.13
2018-01-07T00:04:24.991Z,93.79
2018-01-07T00:05:24.988Z,93.79
2018-01-07T00:06:24.975Z,93.51
2018-01-07T00:07:24.969Z,93.65
2018-01-07T00:08:24.960Z,93.60
2018-01-07T00:09:24.951Z,93.23
2018-01-07T00:10:24.946Z,93.51
2018-01-07T00:11:24.938Z,93.60
2018-01-07T00:12:24.934Z,93.23
2018-01-07T00:13:24.920Z,93.41
2018-01-07T00:14:24.914Z,93.79
2018-01-07T00:15:24.905Z,93.13
2018-01-07T00:16:24.897Z,92.75
2018-01-07T00:17:24.900Z,92.66
2018-01-07T00:18:24.889Z,92.27
2018-01-07T00:19:24.872Z,92.46
2018-01-07T00:20:24.861Z,92.56
2018-01-07T00:21:24.854Z,92.37
2018-01-07T00:22:24.846Z,91.99
2018-01-07T00:23:24.838Z,92.27
2018-01-07T00:24:24.828Z,92.46
2018-01-07T00:25:24.820Z,92.37
2018-01-07T00:26:24.807Z,92.56
2018-01-07T00:27:24.807Z,92.27
2018-01-07T00:28:24.801Z,92.56
2018-01-07T00:29:24.799Z,92.66
2018-01-07T00:30:24.790Z,92.27
2018-01-07T00:31:24.776Z,92.56
2018-01-07T00:32:24.768Z,92.66
2018-01-07T00:33:24.760Z,92.46
2018-01-07T00:34:24.750Z,92.37
2018-01-07T00:35:24.737Z,92.56
2018-01-07T00:36:24.729Z,92.56
2018-01-07T00:37:24.727Z,92.56
2018-01-07T00:38:24.715Z,92.46
2018-01-07T00:39:24.710Z,92.56
2018-01-07T00:40:24.697Z,92.27
2018-01-07T00:41:24.690Z,92.75
2018-01-07T00:42:24.682Z,92.75
2018-01-07T00:43:24.677Z,92.18
2018-01-07T00:44:24.673Z,93.04
2018-01-07T00:45:24.662Z,92.94
2018-01-07T00:46:24.664Z,93.04
2018-01-07T00:47:24.641Z,93.04
2018-01-07T00:48:24.635Z,92.75
2018-01-07T00:49:24.627Z,92.46
2018-01-07T00:50:24.623Z,92.56
2018-01-07T00:51:24.614Z,92.27
2018-01-07T00:52:24.602Z,92.27
2018-01-07T00:53:24.595Z,92.27
2018-01-07T00:54:24.583Z,93.04
2018-01-07T00:55:24.584Z,92.94
2018-01-07T00:56:24.572Z,93.23
2018-01-07T00:57:24.567Z,93.04
2018-01-07T00:58:24.557Z,92.18
2018-01-07T00:59:24.542Z,92.66
2018-01-07T01:00:24.532Z,92.66
2018-01-07T01:01:24.524Z,92.27
2018-01-07T01:02:24.521Z,92.46
2018-01-07T01:03:24.513Z,92.75
2018-01-07T01:04:24.503Z,92.56
2018-01-07T01:05:24.496Z,92.08
2018-01-07T01:06:24.497Z,92.18
2018-01-07T01:07:24.480Z,92.37
2018-01-07T01:08:24.473Z,92.66
2018-01-07T01:09:24.467Z,92.56
2018-01-07T01:10:24.458Z,92.37
2018-01-07T01:11:24.451Z,92.75
2018-01-07T01:12:24.442Z,92.85
2018-01-07T01:13:24.434Z,92.46
2018-01-07T01:14:24.424Z,93.04
2018-01-07T01:15:24.408Z,92.85
2018-01-07T01:16:24.405Z,92.94
2018-01-07T01:17:24.395Z,92.94
2018-01-07T01:18:24.389Z,93.41
2018-01-07T01:19:24.379Z,93.04
2018-01-07T01:20:24.374Z,93.70
2018-01-07T01:21:24.363Z,92.66
2018-01-07T01:22:24.356Z,93.41
2018-01-07T01:23:24.350Z,93.23
2018-01-07T01:24:24.348Z,92.85
2018-01-07T01:25:24.335Z,93.32
2018-01-07T01:26:24.326Z,93.32
2018-01-07T01:27:24.316Z,93.23
2018-01-07T01:28:24.309Z,93.51
2018-01-07T01:29:24.300Z,93.41
2018-01-07T01:30:24.293Z,94.27
2018-01-07T01:31:24.281Z,93.99
2018-01-07T01:32:24.273Z,93.60
2018-01-07T01:33:24.265Z,93.79
2018-01-07T01:34:24.257Z,93.32
2018-01-07T01:35:24.248Z,93.60
2018-01-07T01:36:24.239Z,93.51
2018-01-07T01:37:24.232Z,93.32
2018-01-07T01:38:24.225Z,93.70
2018-01-07T01:39:24.222Z,93.41
2018-01-07T01:40:24.208Z,93.89
2018-01-07T01:41:24.204Z,94.13
2018-01-07T01:42:24.237Z,94.18
2018-01-07T01:43:24.183Z,93.89
2018-01-07T01:44:24.195Z,94.08
2018-01-07T01:45:24.184Z,94.08
2018-01-07T01:46:24.163Z,93.41
2018-01-07T01:47:24.152Z,93.23
2018-01-07T01:48:24.141Z,93.41
2018-01-07T01:49:24.133Z,93.70
2018-01-07T01:50:24.125Z,93.60
2018-01-07T01:51:24.122Z,93.70
2018-01-07T01:52:24.110Z,94.27
2018-01-07T01:53:24.100Z,94.27
2018-01-07T01:54:24.092Z,93.70
2018-01-07T01:55:24.093Z,93.60
2018-01-07T01:56:24.079Z,93.79
2018-01-07T01:57:24.070Z,93.32
2018-01-07T01:58:24.061Z,93.79
2018-01-07T01:59:24.051Z,93.41
2018-01-07T02:00:24.042Z,93.41
2018-01-07T02:01:24.036Z,93.51
2018-01-07T02:02:24.034Z,93.13
2018-01-07T02:03:24.022Z,93.41
2018-01-07T02:04:24.017Z,93.79
2018-01-07T02:05:24.002Z,93.23
2018-01-07T02:06:23.999Z,93.32
2018-01-07T02:07:23.991Z,93.60
2018-01-07T02:08:23.984Z,93.70
2018-01-07T02:09:23.974Z,94.23
2018-01-07T02:10:23.968Z,93.41
2018-01-07T02:11:23.955Z,93.70
2018-01-07T02:12:23.946Z,93.89
2018-01-07T02:13:23.941Z,94.37
2018-01-07T02:14:23.932Z,94.13
2018-01-07T02:15:23.922Z,93.56
2018-01-07T02:16:23.913Z,93.94
2018-01-07T02:17:23.905Z,94.13
2018-01-07T02:18:23.898Z,94.23
2018-01-07T02:19:23.890Z,94.51
2018-01-07T02:20:23.885Z,94.32
2018-01-07T02:21:23.875Z,94.51
2018-01-07T02:22:23.867Z,94.70
2018-01-07T02:23:23.858Z,94.70
2018-01-07T02:24:23.852Z,94.60
2018-01-07T02:25:24.454Z,94.51
2018-01-07T02:26:23.831Z,94.89
2018-01-07T02:27:23.822Z,94.23
2018-01-07T02:28:23.814Z,94.42
2018-01-07T02:29:23.805Z,94.46
2018-01-07T02:30:23.797Z,94.84
2018-01-07T02:31:23.791Z,94.65
2018-01-07T02:32:23.784Z,94.93
2018-01-07T02:33:23.775Z,94.46
2018-01-07T02:34:23.780Z,94.70
2018-01-07T02:35:23.759Z,94.79
2018-01-07T02:36:23.753Z,94.93
2018-01-07T02:37:23.743Z,94.74
2018-01-07T02:38:23.737Z,94.13
2018-01-07T02:39:23.724Z,94.74
2018-01-07T02:40:23.714Z,94.74
2018-01-07T02:41:23.718Z,94.65
2018-01-07T02:42:23.705Z,94.74
2018-01-07T02:43:23.697Z,94.84
2018-01-07T02:44:23.684Z,94.42
2018-01-07T02:45:23.676Z,95.55
2018-01-07T02:46:23.667Z,95.08
2018-01-07T02:47:23.659Z,95.08
2018-01-07T02:48:23.650Z,95.32
2018-01-07T02:49:23.683Z,95.75
2018-01-07T02:50:23.636Z,95.08
2018-01-07T02:51:23.627Z,95.08
2018-01-07T02:52:23.621Z,95.27
2018-01-07T02:53:23.617Z,95.27
2018-01-07T02:54:23.610Z,95.55
2018-01-07T02:55:23.593Z,95.55
2018-01-07T02:56:23.589Z,95.46
2018-01-07T02:57:23.582Z,95.65
2018-01-07T02:58:23.571Z,95.75
2018-01-07T02:59:23.560Z,96.12
2018-01-07T03:00:23.552Z,95.84
2018-01-07T03:01:23.542Z,96.31
2018-01-07T03:02:23.535Z,96.12
2018-01-07T03:03:23.530Z,96.03
2018-01-07T03:04:23.522Z,95.75
2018-01-07T03:05:23.515Z,96.12
2018-01-07T03:06:23.510Z,96.12
2018-01-07T03:07:23.498Z,96.03
2018-01-07T03:08:23.486Z,95.65
2018-01-07T03:09:23.477Z,95.84
2018-01-07T03:10:23.471Z,95.94
2018-01-07T03:11:23.459Z,95.94
2018-01-07T03:12:23.451Z,95.75
2018-01-07T03:13:23.446Z,96.12
2018-01-07T03:14:23.434Z,96.03
2018-01-07T03:15:23.432Z,95.75
2018-01-07T03:16:23.422Z,96.03
2018-01-07T03:17:23.414Z,95.94
2018-01-07T03:18:23.407Z,96.12
2018-01-07T03:19:23.396Z,96.12
2018-01-07T03:20:23.392Z,96.12
2018-01-07T03:21:23.382Z,95.75
2018-01-07T03:22:23.373Z,95.94
2018-01-07T03:23:23.360Z,95.84
2018-01-07T03:24:23.352Z,96.12
2018-01-07T03:25:23.343Z,96.12
2018-01-07T03:26:23.335Z,95.36
2018-01-07T03:27:23.329Z,95.65
2018-01-07T03:28:23.320Z,95.65
2018-01-07T03:29:23.315Z,95.27
2018-01-07T03:30:23.302Z,95.36
2018-01-07T03:31:23.298Z,95.27
2018-01-07T03:32:23.289Z,95.46
2018-01-07T03:33:23.284Z,95.75
2018-01-07T03:34:23.277Z,95.84
2018-01-07T03:35:23.266Z,95.65
2018-01-07T03:36:23.255Z,96.12
2018-01-07T03:37:23.245Z,96.03
2018-01-07T03:38:23.240Z,96.03
2018-01-07T03:39:23.227Z,96.12
2018-01-07T03:40:23.218Z,96.03
2018-01-07T03:41:23.211Z,96.03
2018-01-07T03:42:23.203Z,95.75
2018-01-07T03:43:23.195Z,96.12
2018-01-07T03:44:23.182Z,96.03
2018-01-07T03:45:23.177Z,95.08
2018-01-07T03:46:23.172Z,95.36
2018-01-07T03:47:23.168Z,95.17
2018-01-07T03:48:23.159Z,95.75
2018-01-07T03:49:23.149Z,95.84
2018-01-07T03:50:23.138Z,95.27
2018-01-07T03:51:23.126Z,95.27
2018-01-07T03:52:23.123Z,95.84
2018-01-07T03:53:23.113Z,95.65
2018-01-07T03:54:23.105Z,95.27
2018-01-07T03:55:23.093Z,95.17
2018-01-07T03:56:23.085Z,95.27
2018-01-07T03:57:23.074Z,94.98
2018-01-07T03:58:23.065Z,94.42
2018-01-07T03:59:23.061Z,94.70
2018-01-07T04:00:23.050Z,94.51
2018-01-07T04:01:23.042Z,94.89
2018-01-07T04:02:23.034Z,94.42
2018-01-07T04:03:23.030Z,94.13
2018-01-07T04:04:23.020Z,94.70
2018-01-07T04:05:23.015Z,94.32
2018-01-07T04:06:23.004Z,94.70
2018-01-07T04:07:22.995Z,94.32
2018-01-07T04:08:22.988Z,94.32
2018-01-07T04:09:22.978Z,94.42
2018-01-07T04:10:22.970Z,94.51
2018-01-07T04:11:22.956Z,94.32
2018-01-07T04:12:22.949Z,95.65
2018-01-07T04:13:22.946Z,94.70
2018-01-07T04:14:22.935Z,95.08
2018-01-07T04:15:22.924Z,95.36
2018-01-07T04:16:22.918Z,94.42
2018-01-07T04:17:22.910Z,93.94
2018-01-07T04:18:22.900Z,94.60
2018-01-07T04:19:22.889Z,94.70
2018-01-07T04:20:22.888Z,94.51
2018-01-07T04:21:22.875Z,94.70
2018-01-07T04:22:22.868Z,93.94
2018-01-07T04:23:22.872Z,94.13
2018-01-07T04:24:22.846Z,93.94
2018-01-07T04:25:22.834Z,94.03
2018-01-07T04:26:22.841Z,93.84
2018-01-07T04:27:22.822Z,93.37
2018-01-07T04:28:22.813Z,94.08
2018-01-07T04:29:22.806Z,93.84
2018-01-07T04:30:22.796Z,94.18
2018-01-07T04:31:22.780Z,94.18
2018-01-07T04:32:22.771Z,94.42
2018-01-07T04:33:22.774Z,94.42
2018-01-07T04:34:22.761Z,94.60
2018-01-07T04:35:22.755Z,93.99
2018-01-07T04:36:22.750Z,94.18
2018-01-07T04:37:22.743Z,94.27
2018-01-07T04:38:22.730Z,93.89
2018-01-07T04:39:22.724Z,93.99
2018-01-07T04:40:22.714Z,94.13
2018-01-07T04:41:22.704Z,93.89
2018-01-07T04:42:22.692Z,94.03
2018-01-07T04:43:22.682Z,93.32
2018-01-07T04:44:22.673Z,93.60
2018-01-07T04:45:22.665Z,93.60
2018-01-07T04:46:22.658Z,92.94
2018-01-07T04:47:22.648Z,93.94
2018-01-07T04:48:22.640Z,93.41
2018-01-07T04:49:22.633Z,93.60
2018-01-07T04:50:22.627Z,93.08
2018-01-07T04:51:22.616Z,92.61
2018-01-07T04:52:22.607Z,92.99
2018-01-07T04:53:22.602Z,92.90
2018-01-07T04:54:22.594Z,93.08
2018-01-07T04:55:22.573Z,92.90
2018-01-07T04:56:22.604Z,93.27
2018-01-07T04:57:22.567Z,93.08
2018-01-07T04:58:22.562Z,92.99
2018-01-07T04:59:22.546Z,92.80
2018-01-07T05:00:22.538Z,92.71
2018-01-07T05:01:22.544Z,91.56
2018-01-07T05:02:22.524Z,91.47
2018-01-07T05:03:22.512Z,91.56
2018-01-07T05:04:22.503Z,92.13
2018-01-07T05:05:22.493Z,92.32
2018-01-07T05:06:22.486Z,91.66
2018-01-07T05:07:22.480Z,91.94
2018-01-07T05:08:22.476Z,92.04
2018-01-07T05:09:22.465Z,91.28
2018-01-07T05:10:22.457Z,91.66
2018-01-07T05:11:22.447Z,91.19
2018-01-07T05:12:22.436Z,91.94
2018-01-07T05:13:22.429Z,91.14
2018-01-07T05:14:22.420Z,91.61
2018-01-07T05:15:22.415Z,91.61
2018-01-07T05:16:22.403Z,91.66
2018-01-07T05:17:22.398Z,92.13
2018-01-07T05:18:22.388Z,92.09
2018-01-07T05:19:22.378Z,92.18
2018-01-07T05:20:22.367Z,92.28
2018-01-07T05:21:22.356Z,92.37
2018-01-07T05:22:22.364Z,91.52
2018-01-07T05:23:22.341Z,91.89
2018-01-07T05:24:22.332Z,91.47
2018-01-07T05:25:22.329Z,91.75
2018-01-07T05:26:22.316Z,91.09
2018-01-07T05:27:22.305Z,91.09
2018-01-07T05:28:22.296Z,91.14
2018-01-07T05:29:22.290Z,91.28
2018-01-07T05:30:22.280Z,91.28
2018-01-07T05:31:22.277Z,91.09
2018-01-07T05:32:22.267Z,91.28
2018-01-07T05:33:22.258Z,91.19
2018-01-07T05:34:22.252Z,91.19
2018-01-07T05:35:22.238Z,90.71
2018-01-07T05:36:22.233Z,90.99
2018-01-07T05:37:22.224Z,90.99
2018-01-07T05:38:22.215Z,91.85
2018-01-07T05:39:22.203Z,91.75
2018-01-07T05:40:22.194Z,91.66
2018-01-07T05:41:22.190Z,90.90
2018-01-07T05:42:22.178Z,90.71
2018-01-07T05:43:22.169Z,90.23
2018-01-07T05:44:22.163Z,90.33
2018-01-07T05:45:22.155Z,90.80
2018-01-07T05:46:22.146Z,90.23
2018-01-07T05:47:22.144Z,90.14
2018-01-07T05:48:22.129Z,90.05
2018-01-07T05:49:22.120Z,90.71
2018-01-07T05:50:22.114Z,90.47
2018-01-07T05:51:22.106Z,90.28
2018-01-07T05:52:22.096Z,90.47
2018-01-07T05:53:22.088Z,90.52
2018-01-07T05:54:22.081Z,90.66
2018-01-07T05:55:22.067Z,91.28
2018-01-07T05:56:22.060Z,91.09
2018-01-07T05:57:22.051Z,91.19
2018-01-07T05:58:22.045Z,90.52
2018-01-07T05:59:22.035Z,90.33
2018-01-07T06:00:22.031Z,90.33
2018-01-07T06:01:22.020Z,90.23
2018-01-07T06:02:22.007Z,90.14
2018-01-07T06:03:22.001Z,89.95
2018-01-07T06:04:22.527Z,90.23
2018-01-07T06:05:21.985Z,89.95
2018-01-07T06:06:21.976Z,89.86
2018-01-07T06:07:21.972Z,89.67
2018-01-07T06:08:21.961Z,90.14
2018-01-07T06:09:21.952Z,90.05
2018-01-07T06:10:21.942Z,89.95
2018-01-07T06:11:21.932Z,89.67
2018-01-07T06:12:21.921Z,89.86
2018-01-07T06:13:21.914Z,89.86
2018-01-07T06:14:21.906Z,89.76
2018-01-07T06:15:21.910Z,89.67
2018-01-07T06:16:21.892Z,89.76
2018-01-07T06:17:21.883Z,89.86
2018-01-07T06:18:21.876Z,90.14
2018-01-07T06:19:21.864Z,89.95
2018-01-07T06:20:21.855Z,89.76
2018-01-07T06:21:21.847Z,90.23
2018-01-07T06:22:21.838Z,89.86
2018-01-07T06:23:21.829Z,90.05
2018-01-07T06:24:21.822Z,89.86
2018-01-07T06:25:21.812Z,90.23
2018-01-07T06:26:21.806Z,89.86
2018-01-07T06:27:21.798Z,89.95
2018-01-07T06:28:21.791Z,89.95
2018-01-07T06:29:21.785Z,90.05
2018-01-07T06:30:21.777Z,89.95
2018-01-07T06:31:21.766Z,89.47
2018-01-07T06:32:21.758Z,89.38
2018-01-07T06:33:21.750Z,89.76
2018-01-07T06:34:21.739Z,89.57
2018-01-07T06:35:21.727Z,89.86
2018-01-07T06:36:21.721Z,89.86
2018-01-07T06:37:21.714Z,89.86
2018-01-07T06:38:21.704Z,89.95
2018-01-07T06:39:21.696Z,89.81
2018-01-07T06:40:21.687Z,89.81
2018-01-07T06:41:21.679Z,89.62
2018-01-07T06:42:21.670Z,89.28
2018-01-07T06:43:21.661Z,89.47
2018-01-07T06:44:21.651Z,89.19
2018-01-07T06:45:21.647Z,89.57
2018-01-07T06:46:21.645Z,89.38
2018-01-07T06:47:21.623Z,89.57
2018-01-07T06:48:21.622Z,89.57
2018-01-07T06:49:21.613Z,89.47
2018-01-07T06:50:21.613Z,89.28
2018-01-07T06:51:21.592Z,89.76
2018-01-07T06:52:21.584Z,89.57
2018-01-07T06:53:21.576Z,89.28
2018-01-07T06:54:21.572Z,88.90
2018-01-07T06:55:21.558Z,89.28
2018-01-07T06:56:21.551Z,89.28
2018-01-07T06:57:21.544Z,89.19
2018-01-07T06:58:21.533Z,89.38
2018-01-07T06:59:21.542Z,89.57
2018-01-07T07:00:21.519Z,89.09
2018-01-07T07:01:21.513Z,89.76
2018-01-07T07:02:21.503Z,89.33
2018-01-07T07:03:21.497Z,89.28
2018-01-07T07:04:21.483Z,89.33
2018-01-07T07:05:21.480Z,89.28
2018-01-07T07:06:21.472Z,89.28
2018-01-07T07:07:21.460Z,89.38
2018-01-07T07:08:21.450Z,89.38
2018-01-07T07:09:21.441Z,88.81
2018-01-07T07:10:21.434Z,89.00
2018-01-07T07:11:21.424Z,89.00
2018-01-07T07:12:21.413Z,89.67
2018-01-07T07:13:21.407Z,89.38
2018-01-07T07:14:21.398Z,89.09
2018-01-07T07:15:21.384Z,89.38
2018-01-07T07:16:21.383Z,89.57
2018-01-07T07:17:21.376Z,89.00
2018-01-07T07:18:21.375Z,88.81
2018-01-07T07:19:21.352Z,89.76
2018-01-07T07:20:21.349Z,89.57
2018-01-07T07:21:21.337Z,89.19
2018-01-07T07:22:21.330Z,89.38
2018-01-07T07:23:21.326Z,89.57
2018-01-07T07:24:21.317Z,89.19
2018-01-07T07:25:21.310Z,89.47
2018-01-07T07:26:21.301Z,88.71
2018-01-07T07:27:21.292Z,88.81
2018-01-07T07:28:21.281Z,88.90
2018-01-07T07:29:21.288Z,88.81
2018-01-07T07:30:21.266Z,89.14
2018-01-07T07:31:21.254Z,89.14
2018-01-07T07:32:21.242Z,88.48
2018-01-07T07:33:21.235Z,89.28
2018-01-07T07:34:22.053Z,88.62
2018-01-07T07:35:21.218Z,88.76
2018-01-07T07:36:21.214Z,88.81
2018-01-07T07:37:21.202Z,88.71
2018-01-07T07:38:21.202Z,88.81
2018-01-07T07:39:21.189Z,88.71
2018-01-07T07:40:21.181Z,88.48
2018-01-07T07:41:21.173Z,88.67
2018-01-07T07:42:21.162Z,88.90
2018-01-07T07:43:21.152Z,88.90
2018-01-07T07:44:21.145Z,88.71
2018-01-07T07:45:21.130Z,88.90
2018-01-07T07:46:21.128Z,88.53
2018-01-07T07:47:21.116Z,89.28
2018-01-07T07:48:21.111Z,88.76
2018-01-07T07:49:21.097Z,88.76
2018-01-07T07:50:21.093Z,88.53
2018-01-07T07:51:21.599Z,88.90
2018-01-07T07:52:21.072Z,89.57
2018-01-07T07:53:21.063Z,89.28
2018-01-07T07:54:21.055Z,88.71
2018-01-07T07:55:21.049Z,88.67
2018-01-07T07:56:21.044Z,87.91
2018-01-07T07:57:21.026Z,87.91
2018-01-07T07:58:21.030Z,87.95
2018-01-07T07:59:21.016Z,87.67
2018-01-07T08:00:21.006Z,87.38
2018-01-07T08:01:20.997Z,87.10
2018-01-07T08:02:20.990Z,86.91
2018-01-07T08:03:20.976Z,87.38
2018-01-07T08:04:20.970Z,87.67
2018-01-07T08:05:20.959Z,87.38
2018-01-07T08:06:20.952Z,87.38
2018-01-07T08:07:20.939Z,87.67
2018-01-07T08:08:20.933Z,87.10
2018-01-07T08:09:20.926Z,87.48
2018-01-07T08:10:20.921Z,87.48
2018-01-07T08:11:20.916Z,87.29
2018-01-07T08:12:20.916Z,87.29
2018-01-07T08:13:20.895Z,87.10
2018-01-07T08:14:20.884Z,86.34
2018-01-07T08:15:20.875Z,85.96
2018-01-07T08:16:20.872Z,85.86
2018-01-07T08:17:20.861Z,86.34
2018-01-07T08:18:20.852Z,86.24
2018-01-07T08:19:20.837Z,86.34
2018-01-07T08:20:20.829Z,85.77
2018-01-07T08:21:20.823Z,86.24
2018-01-07T08:22:20.814Z,86.05
2018-01-07T08:23:20.805Z,86.15
2018-01-07T08:24:21.575Z,85.77
2018-01-07T08:25:20.791Z,85.68
2018-01-07T08:26:20.781Z,85.77
2018-01-07T08:27:20.777Z,85.96
2018-01-07T08:28:20.770Z,85.77
2018-01-07T08:29:20.760Z,86.05
2018-01-07T08:30:20.747Z,86.24
2018-01-07T08:31:20.740Z,86.05
2018-01-07T08:32:20.739Z,86.05
2018-01-07T08:33:20.723Z,85.68
2018-01-07T08:34:20.715Z,86.15
2018-01-07T08:35:20.699Z,85.77
2018-01-07T08:36:20.695Z,85.30
2018-01-07T08:37:20.687Z,85.96
2018-01-07T08:38:20.677Z,85.58
2018-01-07T08:39:20.680Z,85.68
2018-01-07T08:40:20.660Z,85.49
2018-01-07T08:41:20.653Z,85.11
2018-01-07T08:42:20.643Z,85.39
2018-01-07T08:43:20.645Z,85.30
2018-01-07T08:44:20.630Z,85.30
2018-01-07T08:45:20.621Z,85.49
2018-01-07T08:46:20.615Z,85.20
2018-01-07T08:47:20.605Z,84.82
2018-01-07T08:48:20.596Z,85.01
2018-01-07T08:49:20.590Z,84.91
2018-01-07T08:50:20.586Z,84.91
2018-01-07T08:51:20.566Z,84.63
2018-01-07T08:52:20.558Z,84.34
2018-01-07T08:53:20.552Z,84.34
2018-01-07T08:54:20.542Z,84.39
2018-01-07T08:55:20.537Z,83.78
2018-01-07T08:56:20.525Z,83.87
2018-01-07T08:57:20.519Z,84.16
2018-01-07T08:58:20.510Z,83.49
2018-01-07T08:59:20.504Z,83.78
2018-01-07T09:00:20.500Z,84.34
2018-01-07T09:01:20.650Z,84.06
2018-01-07T09:02:20.480Z,84.16
2018-01-07T09:03:20.472Z,84.53
2018-01-07T09:04:20.464Z,84.25
2018-01-07T09:05:20.456Z,84.25
2018-01-07T09:06:20.444Z,83.78
2018-01-07T09:07:20.435Z,83.97
2018-01-07T09:08:20.469Z,83.87
2018-01-07T09:09:20.418Z,83.68
2018-01-07T09:10:20.415Z,84.25
2018-01-07T09:11:20.399Z,83.87
2018-01-07T09:12:20.393Z,83.78
2018-01-07T09:13:20.387Z,84.25
2018-01-07T09:14:20.380Z,84.10
2018-01-07T09:15:20.372Z,84.20
2018-01-07T09:16:20.363Z,83.53
2018-01-07T09:17:20.356Z,82.77
2018-01-07T09:18:20.345Z,82.96
2018-01-07T09:19:20.336Z,83.25
2018-01-07T09:20:20.333Z,83.20
2018-01-07T09:21:20.322Z,83.30
2018-01-07T09:22:20.310Z,83.62
2018-01-07T09:23:20.302Z,83.53
2018-01-07T09:24:20.294Z,83.62
2018-01-07T09:25:20.291Z,83.34
2018-01-07T09:26:20.280Z,83.25
2018-01-07T09:27:20.274Z,82.58
2018-01-07T09:28:20.268Z,82.77
2018-01-07T09:29:20.255Z,82.68
2018-01-07T09:30:20.260Z,82.39
2018-01-07T09:31:20.239Z,82.20
2018-01-07T09:32:20.227Z,82.39
2018-01-07T09:33:20.222Z,82.68
2018-01-07T09:34:20.218Z,82.39
2018-01-07T09:35:20.204Z,82.29
2018-01-07T09:36:20.225Z,82.39
2018-01-07T09:37:20.190Z,81.82
2018-01-07T09:38:20.183Z,80.96
2018-01-07T09:39:20.174Z,80.58
2018-01-07T09:40:20.213Z,80.58
2018-01-07T09:41:20.160Z,80.40
2018-01-07T09:42:20.156Z,81.16
2018-01-07T09:43:20.139Z,81.06
2018-01-07T09:44:20.137Z,80.77
2018-01-07T09:45:20.131Z,80.40
2018-01-07T09:46:20.122Z,80.11
2018-01-07T09:47:20.113Z,81.35
2018-01-07T09:48:20.102Z,79.83
2018-01-07T09:49:20.097Z,79.63
2018-01-07T09:50:20.093Z,79.83
2018-01-07T09:51:20.080Z,79.35
2018-01-07T09:52:20.076Z,78.88
2018-01-07T09:53:20.064Z,78.88
2018-01-07T09:54:20.055Z,78.78
2018-01-07T09:55:20.050Z,78.30
2018-01-07T09:56:20.044Z,78.88
2018-01-07T09:57:20.040Z,78.88
2018-01-07T09:58:20.027Z,78.40
2018-01-07T09:59:20.020Z,78.11
2018-01-07T10:00:20.016Z,78.59
2018-01-07T10:01:20.823Z,78.30
2018-01-07T10:02:19.993Z,78.50
2018-01-07T10:03:19.986Z,78.88
2018-01-07T10:04:19.979Z,78.69
2018-01-07T10:05:20.549Z,78.69
2018-01-07T10:06:19.966Z,78.69
2018-01-07T10:07:19.963Z,79.54
2018-01-07T10:08:21.466Z,79.35
2018-01-07T10:09:19.939Z,79.25
2018-01-07T10:10:19.937Z,79.35
2018-01-07T10:11:19.927Z,78.78
2018-01-07T10:12:20.403Z,78.88
2018-01-07T10:13:19.912Z,78.78
2018-01-07T10:14:19.899Z,78.69
2018-01-07T10:15:19.905Z,78.11
2018-01-07T10:16:19.887Z,77.64
2018-01-07T10:17:19.897Z,77.64
2018-01-07T10:18:19.870Z,78.02
2018-01-07T10:19:19.861Z,78.50
2018-01-07T10:20:19.855Z,78.97
2018-01-07T10:21:19.846Z,79.54
2018-01-07T10:22:19.838Z,79.44
2018-01-07T10:23:19.842Z,79.58
2018-01-07T10:24:19.821Z,79.86
2018-01-07T10:25:19.814Z,79.77
2018-01-07T10:26:19.813Z,78.16
2018-01-07T10:27:19.810Z,78.11
2018-01-07T10:28:19.809Z,78.02
2018-01-07T10:29:19.792Z,78.59
2018-01-07T10:30:19.781Z,78.11
2018-01-07T10:31:19.801Z,78.21
2018-01-07T10:32:19.771Z,78.50
2018-01-07T10:33:19.757Z,77.83
2018-01-07T10:34:19.749Z,78.21
2018-01-07T10:35:19.741Z,78.50
2018-01-07T10:36:19.734Z,78.78
2018-01-07T10:37:23.544Z,78.40
2018-01-07T10:38:19.721Z,79.35
2018-01-07T10:39:19.711Z,79.63
2018-01-07T10:40:19.705Z,79.44
2018-01-07T10:41:19.694Z,78.97
2018-01-07T10:42:19.689Z,78.88
2018-01-07T10:43:19.676Z,78.30
2018-01-07T10:44:19.669Z,78.40
2018-01-07T10:45:19.666Z,77.64
2018-01-07T10:46:19.654Z,76.97
2018-01-07T10:47:19.644Z,77.36
2018-01-07T10:48:19.653Z,77.73
2018-01-07T10:49:19.629Z,77.36
2018-01-07T10:50:19.634Z,77.45
2018-01-07T10:51:19.617Z,77.55
2018-01-07T10:52:19.610Z,77.64
2018-01-07T10:53:19.602Z,78.21
2018-01-07T10:54:19.594Z,77.73
2018-01-07T10:55:19.589Z,78.11
2018-01-07T10:56:19.583Z,77.64
2018-01-07T10:57:19.575Z,77.92
2018-01-07T10:58:19.565Z,77.92
2018-01-07T10:59:19.553Z,78.02
2018-01-07T11:00:19.550Z,77.83
2018-01-07T11:01:19.528Z,77.64
2018-01-07T11:02:19.530Z,77.36
2018-01-07T11:03:19.522Z,77.55
2018-01-07T11:04:21.707Z,77.64
2018-01-07T11:05:19.505Z,77.36
2018-01-07T11:06:19.497Z,77.36
2018-01-07T11:07:19.500Z,77.36
2018-01-07T11:08:19.485Z,77.92
2018-01-07T11:09:19.481Z,78.40
2018-01-07T11:10:19.470Z,78.40
2018-01-07T11:11:23.572Z,78.02
2018-01-07T11:12:19.456Z,78.50
2018-01-07T11:13:19.449Z,78.88
2018-01-07T11:14:19.436Z,79.54
2018-01-07T11:15:19.429Z,78.97
2018-01-07T11:16:19.418Z,77.83
2018-01-07T11:17:19.413Z,77.73
2018-01-07T11:18:19.404Z,77.55
2018-01-07T11:19:19.396Z,77.73
2018-01-07T11:20:19.388Z,77.36
2018-01-07T11:21:19.381Z,77.64
2018-01-07T11:22:19.375Z,77.26
2018-01-07T11:23:19.367Z,77.26
2018-01-07T11:24:19.369Z,77.36
2018-01-07T11:25:19.353Z,77.64
2018-01-07T11:26:19.368Z,77.73
2018-01-07T11:27:19.336Z,77.36
2018-01-07T11:28:19.330Z,77.36
2018-01-07T11:29:19.322Z,77.73
2018-01-07T11:30:19.315Z,77.64
2018-01-07T11:31:19.484Z,77.26
2018-01-07T11:32:19.297Z,77.36
2018-01-07T11:33:19.289Z,77.36
2018-01-07T11:34:19.285Z,77.83
2018-01-07T11:35:19.271Z,77.83
2018-01-07T11:36:19.268Z,78.02
2018-01-07T11:37:19.257Z,78.69
2018-01-07T11:38:19.254Z,78.69
2018-01-07T11:39:19.245Z,78.21
2018-01-07T11:40:19.246Z,78.16
2018-01-07T11:41:19.226Z,77.77
2018-01-07T11:42:19.219Z,77.49
2018-01-07T11:43:19.211Z,77.97
2018-01-07T11:44:19.202Z,77.55
2018-01-07T11:45:19.198Z,77.73
2018-01-07T11:46:19.200Z,77.73
2018-01-07T11:47:19.184Z,77.83
2018-01-07T11:48:19.176Z,77.64
2018-01-07T11:49:19.168Z,77.64
2018-01-07T11:50:19.159Z,77.92
2018-01-07T11:51:19.154Z,78.11
2018-01-07T11:52:19.143Z,77.45
2018-01-07T11:53:19.138Z,77.26
2018-01-07T11:54:19.129Z,77.26
2018-01-07T11:55:19.148Z,77.07
2018-01-07T11:56:19.110Z,77.07
2018-01-07T11:57:19.106Z,76.88
2018-01-07T11:58:19.096Z,76.78
2018-01-07T11:59:19.085Z,76.50
2018-01-07T12:00:19.078Z,76.59
2018-01-07T12:01:19.072Z,76.69
2018-01-07T12:02:19.066Z,76.50
2018-01-07T12:03:19.060Z,76.50
2018-01-07T12:04:19.054Z,76.40
2018-01-07T12:05:19.046Z,75.93
2018-01-07T12:06:19.054Z,76.06
2018-01-07T12:07:19.030Z,76.21
2018-01-07T12:08:19.023Z,76.21
2018-01-07T12:09:19.012Z,75.74
2018-01-07T12:10:19.006Z,75.93
2018-01-07T12:11:18.993Z,75.84
2018-01-07T12:12:18.982Z,75.74
2018-01-07T12:13:19.650Z,75.93
2018-01-07T12:13:30.976Z,75.93
2018-01-07T12:15:18.965Z,76.21
2018-01-07T12:16:18.954Z,76.16
2018-01-07T12:17:18.948Z,76.31
2018-01-07T12:18:18.938Z,76.12
2018-01-07T12:19:18.925Z,76.44
2018-01-07T12:20:18.926Z,76.54
2018-01-07T12:21:18.920Z,76.35
2018-01-07T12:22:18.910Z,76.06
2018-01-07T12:23:18.906Z,76.16
2018-01-07T12:24:18.897Z,75.74
2018-01-07T12:25:18.890Z,75.68
2018-01-07T12:26:18.882Z,75.96
2018-01-07T12:27:18.870Z,75.36
2018-01-07T12:28:18.875Z,75.84
2018-01-07T12:29:18.853Z,75.55
2018-01-07T12:30:18.844Z,75.26
2018-01-07T12:31:18.836Z,75.93
2018-01-07T12:32:18.825Z,76.21
2018-01-07T12:33:18.821Z,78.25
2018-01-07T12:34:18.816Z,78.82
2018-01-07T12:35:18.813Z,79.30
2018-01-07T12:36:18.802Z,78.91
2018-01-07T12:37:18.788Z,77.68
2018-01-07T12:38:18.781Z,77.01
2018-01-07T12:39:18.778Z,77.39
2018-01-07T12:40:18.768Z,76.54
2018-01-07T12:41:18.753Z,76.35
2018-01-07T12:42:18.754Z,76.35
2018-01-07T12:43:18.747Z,76.44
2018-01-07T12:44:18.746Z,77.30
2018-01-07T12:45:18.733Z,77.87
2018-01-07T12:46:18.727Z,77.01
2018-01-07T12:47:18.715Z,77.68
2018-01-07T12:48:18.714Z,80.44
2018-01-07T12:49:18.697Z,79.01
2018-01-07T12:50:18.706Z,75.96
2018-01-07T12:51:18.702Z,75.49
2018-01-07T12:52:18.682Z,75.40